sensor_id;sensor_type;location;lat;lon;timestamp;P1;durP1;ratioP1;P2;durP2;ratioP2
31676;SDS011;18385;51.572;6.578;2022-12-18T00:00:44;17.30;;;5.82;;
31676;SDS011;18385;51.572;6.578;2022-12-18T00:03:12;17.80;;;5.70;;
31676;SDS011;18385;51.572;6.578;2022-12-18T00:05:45;14.75;;;5.05;;
31676;SDS011;18385;51.572;6.578;2022-12-18T00:08:12;15.63;;;5.30;;
31676;SDS011;18385;51.572;6.578;2022-12-18T00:10:38;15.57;;;5.93;;
31676;SDS011;18385;51.572;6.578;2022-12-18T00:13:03;21.75;;;5.38;;
31676;SDS011;18385;51.572;6.578;2022-12-18T00:15:29;14.55;;;5.72;;
31676;SDS011;18385;51.572;6.578;2022-12-18T00:17:55;12.63;;;5.00;;
31676;SDS011;18385;51.572;6.578;2022-12-18T00:20:20;17.77;;;5.68;;
31676;SDS011;18385;51.572;6.578;2022-12-18T00:22:51;17.20;;;5.20;;
31676;SDS011;18385;51.572;6.578;2022-12-18T00:25:17;11.30;;;5.40;;
31676;SDS011;18385;51.572;6.578;2022-12-18T00:27:43;14.02;;;5.53;;
31676;SDS011;18385;51.572;6.578;2022-12-18T00:30:08;18.58;;;4.93;;
31676;SDS011;18385;51.572;6.578;2022-12-18T00:32:35;12.65;;;4.50;;
31676;SDS011;18385;51.572;6.578;2022-12-18T00:35:01;15.13;;;5.13;;
31676;SDS011;18385;51.572;6.578;2022-12-18T00:37:26;11.63;;;5.05;;
31676;SDS011;18385;51.572;6.578;2022-12-18T00:39:52;15.02;;;5.22;;
31676;SDS011;18385;51.572;6.578;2022-12-18T00:42:18;13.05;;;4.97;;
31676;SDS011;18385;51.572;6.578;2022-12-18T00:45:03;11.00;;;4.20;;
31676;SDS011;18385;51.572;6.578;2022-12-18T00:47:30;11.27;;;4.43;;
31676;SDS011;18385;51.572;6.578;2022-12-18T00:49:56;11.90;;;4.80;;
31676;SDS011;18385;51.572;6.578;2022-12-18T00:52:21;11.10;;;4.72;;
31676;SDS011;18385;51.572;6.578;2022-12-18T00:54:47;12.13;;;4.72;;
31676;SDS011;18385;51.572;6.578;2022-12-18T00:57:12;13.30;;;4.78;;
31676;SDS011;18385;51.572;6.578;2022-12-18T00:59:38;11.70;;;5.15;;
31676;SDS011;18385;51.572;6.578;2022-12-18T01:02:04;12.98;;;5.13;;
31676;SDS011;18385;51.572;6.578;2022-12-18T01:04:31;13.68;;;4.95;;
31676;SDS011;18385;51.572;6.578;2022-12-18T01:06:57;13.65;;;5.15;;
31676;SDS011;18385;51.572;6.578;2022-12-18T01:09:23;14.93;;;5.32;;
31676;SDS011;18385;51.572;6.578;2022-12-18T01:11:50;13.35;;;5.10;;
31676;SDS011;18385;51.572;6.578;2022-12-18T01:14:16;15.68;;;5.55;;
31676;SDS011;18385;51.572;6.578;2022-12-18T01:16:42;12.35;;;5.07;;
31676;SDS011;18385;51.572;6.578;2022-12-18T01:19:08;19.40;;;5.65;;
31676;SDS011;18385;51.572;6.578;2022-12-18T01:21:34;14.82;;;6.22;;
31676;SDS011;18385;51.572;6.578;2022-12-18T01:24:02;20.13;;;6.32;;
31676;SDS011;18385;51.572;6.578;2022-12-18T01:26:28;15.35;;;6.00;;
31676;SDS011;18385;51.572;6.578;2022-12-18T01:28:56;20.35;;;6.68;;
31676;SDS011;18385;51.572;6.578;2022-12-18T01:31:23;15.32;;;6.57;;
31676;SDS011;18385;51.572;6.578;2022-12-18T01:33:50;16.77;;;5.70;;
31676;SDS011;18385;51.572;6.578;2022-12-18T01:36:28;19.42;;;5.95;;
31676;SDS011;18385;51.572;6.578;2022-12-18T01:38:56;17.48;;;6.60;;
31676;SDS011;18385;51.572;6.578;2022-12-18T01:41:25;23.23;;;7.25;;
31676;SDS011;18385;51.572;6.578;2022-12-18T01:47:24;15.60;;;5.78;;
31676;SDS011;18385;51.572;6.578;2022-12-18T01:50:04;17.85;;;6.40;;
31676;SDS011;18385;51.572;6.578;2022-12-18T01:52:49;16.20;;;5.85;;
31676;SDS011;18385;51.572;6.578;2022-12-18T01:55:22;19.70;;;6.70;;
31676;SDS011;18385;51.572;6.578;2022-12-18T01:57:51;17.83;;;5.80;;
31676;SDS011;18385;51.572;6.578;2022-12-18T02:00:20;16.50;;;5.32;;
31676;SDS011;18385;51.572;6.578;2022-12-18T02:02:50;17.42;;;5.60;;
31676;SDS011;18385;51.572;6.578;2022-12-18T02:05:19;15.80;;;5.28;;
31676;SDS011;18385;51.572;6.578;2022-12-18T02:11:05;16.95;;;4.95;;
31676;SDS011;18385;51.572;6.578;2022-12-18T02:16:33;17.73;;;5.72;;
31676;SDS011;18385;51.572;6.578;2022-12-18T02:27:26;11.90;;;4.35;;
31676;SDS011;18385;51.572;6.578;2022-12-18T02:29:54;13.05;;;4.68;;
31676;SDS011;18385;51.572;6.578;2022-12-18T02:32:27;15.63;;;4.53;;
31676;SDS011;18385;51.572;6.578;2022-12-18T02:35:01;14.88;;;5.18;;
31676;SDS011;18385;51.572;6.578;2022-12-18T02:37:29;14.93;;;5.10;;
31676;SDS011;18385;51.572;6.578;2022-12-18T02:39:59;11.43;;;4.82;;
31676;SDS011;18385;51.572;6.578;2022-12-18T02:42:29;20.48;;;4.85;;
31676;SDS011;18385;51.572;6.578;2022-12-18T02:44:57;14.63;;;4.80;;
31676;SDS011;18385;51.572;6.578;2022-12-18T02:47:25;13.02;;;4.55;;
31676;SDS011;18385;51.572;6.578;2022-12-18T02:50:02;10.77;;;4.68;;
31676;SDS011;18385;51.572;6.578;2022-12-18T03:04:02;12.65;;;4.90;;
31676;SDS011;18385;51.572;6.578;2022-12-18T03:06:35;12.95;;;4.50;;
31676;SDS011;18385;51.572;6.578;2022-12-18T03:09:11;14.48;;;4.53;;
31676;SDS011;18385;51.572;6.578;2022-12-18T03:11:44;11.65;;;4.65;;
31676;SDS011;18385;51.572;6.578;2022-12-18T03:14:35;14.38;;;4.57;;
31676;SDS011;18385;51.572;6.578;2022-12-18T03:17:05;9.35;;;4.28;;
31676;SDS011;18385;51.572;6.578;2022-12-18T03:19:37;14.05;;;4.50;;
31676;SDS011;18385;51.572;6.578;2022-12-18T03:22:04;11.18;;;4.00;;
31676;SDS011;18385;51.572;6.578;2022-12-18T03:24:41;11.57;;;4.53;;
31676;SDS011;18385;51.572;6.578;2022-12-18T03:27:09;14.70;;;4.40;;
31676;SDS011;18385;51.572;6.578;2022-12-18T03:29:40;11.27;;;4.22;;
31676;SDS011;18385;51.572;6.578;2022-12-18T03:32:19;11.75;;;4.28;;
31676;SDS011;18385;51.572;6.578;2022-12-18T03:34:55;10.77;;;4.15;;
31676;SDS011;18385;51.572;6.578;2022-12-18T03:37:29;9.90;;;4.22;;
31676;SDS011;18385;51.572;6.578;2022-12-18T03:39:56;12.55;;;4.80;;
31676;SDS011;18385;51.572;6.578;2022-12-18T03:45:11;11.43;;;4.10;;
31676;SDS011;18385;51.572;6.578;2022-12-18T03:47:53;11.57;;;4.43;;
31676;SDS011;18385;51.572;6.578;2022-12-18T03:53:29;11.02;;;4.13;;
31676;SDS011;18385;51.572;6.578;2022-12-18T03:56:02;12.95;;;3.97;;
31676;SDS011;18385;51.572;6.578;2022-12-18T03:58:35;14.55;;;4.78;;
31676;SDS011;18385;51.572;6.578;2022-12-18T04:01:15;12.27;;;4.63;;
31676;SDS011;18385;51.572;6.578;2022-12-18T04:03:43;14.10;;;4.90;;
31676;SDS011;18385;51.572;6.578;2022-12-18T04:06:12;15.35;;;5.10;;
31676;SDS011;18385;51.572;6.578;2022-12-18T04:08:40;12.07;;;4.28;;
31676;SDS011;18385;51.572;6.578;2022-12-18T04:11:09;13.30;;;5.32;;
31676;SDS011;18385;51.572;6.578;2022-12-18T04:13:37;14.60;;;5.22;;
31676;SDS011;18385;51.572;6.578;2022-12-18T04:16:07;11.07;;;4.18;;
31676;SDS011;18385;51.572;6.578;2022-12-18T04:18:33;11.27;;;4.53;;
31676;SDS011;18385;51.572;6.578;2022-12-18T04:21:00;17.75;;;4.75;;
31676;SDS011;18385;51.572;6.578;2022-12-18T04:23:27;9.77;;;4.45;;
31676;SDS011;18385;51.572;6.578;2022-12-18T04:25:56;13.48;;;4.68;;
31676;SDS011;18385;51.572;6.578;2022-12-18T04:28:36;14.38;;;4.38;;
31676;SDS011;18385;51.572;6.578;2022-12-18T04:31:01;12.40;;;4.65;;
31676;SDS011;18385;51.572;6.578;2022-12-18T04:33:27;10.98;;;4.72;;
31676;SDS011;18385;51.572;6.578;2022-12-18T04:35:53;10.75;;;4.63;;
31676;SDS011;18385;51.572;6.578;2022-12-18T04:38:19;10.10;;;4.82;;
31676;SDS011;18385;51.572;6.578;2022-12-18T04:40:50;10.38;;;4.63;;
31676;SDS011;18385;51.572;6.578;2022-12-18T04:43:21;10.43;;;4.00;;
31676;SDS011;18385;51.572;6.578;2022-12-18T04:45:47;13.40;;;4.97;;
31676;SDS011;18385;51.572;6.578;2022-12-18T04:48:13;13.55;;;4.22;;
31676;SDS011;18385;51.572;6.578;2022-12-18T04:50:38;14.15;;;5.05;;
31676;SDS011;18385;51.572;6.578;2022-12-18T04:53:04;13.85;;;3.90;;
31676;SDS011;18385;51.572;6.578;2022-12-18T04:55:30;14.48;;;5.22;;
31676;SDS011;18385;51.572;6.578;2022-12-18T04:57:56;11.32;;;4.10;;
31676;SDS011;18385;51.572;6.578;2022-12-18T05:00:21;10.95;;;4.25;;
31676;SDS011;18385;51.572;6.578;2022-12-18T05:02:50;10.25;;;4.95;;
31676;SDS011;18385;51.572;6.578;2022-12-18T05:05:16;12.13;;;4.07;;
31676;SDS011;18385;51.572;6.578;2022-12-18T05:07:42;10.88;;;3.92;;
31676;SDS011;18385;51.572;6.578;2022-12-18T05:10:07;9.43;;;4.03;;
31676;SDS011;18385;51.572;6.578;2022-12-18T05:12:33;12.02;;;4.38;;
31676;SDS011;18385;51.572;6.578;2022-12-18T05:15:19;10.68;;;4.22;;
31676;SDS011;18385;51.572;6.578;2022-12-18T05:17:44;9.65;;;3.83;;
31676;SDS011;18385;51.572;6.578;2022-12-18T05:26:58;9.40;;;3.70;;
31676;SDS011;18385;51.572;6.578;2022-12-18T05:29:24;8.77;;;3.83;;
31676;SDS011;18385;51.572;6.578;2022-12-18T05:31:50;9.48;;;3.40;;
31676;SDS011;18385;51.572;6.578;2022-12-18T05:34:15;10.52;;;3.80;;
31676;SDS011;18385;51.572;6.578;2022-12-18T05:36:41;10.77;;;3.30;;
31676;SDS011;18385;51.572;6.578;2022-12-18T05:39:07;8.07;;;3.55;;
31676;SDS011;18385;51.572;6.578;2022-12-18T05:41:33;9.07;;;3.67;;
31676;SDS011;18385;51.572;6.578;2022-12-18T05:43:58;9.70;;;3.97;;
31676;SDS011;18385;51.572;6.578;2022-12-18T05:46:24;9.07;;;3.47;;
31676;SDS011;18385;51.572;6.578;2022-12-18T05:48:51;5.72;;;2.97;;
31676;SDS011;18385;51.572;6.578;2022-12-18T05:51:17;7.93;;;3.33;;
31676;SDS011;18385;51.572;6.578;2022-12-18T05:53:44;7.43;;;3.20;;
31676;SDS011;18385;51.572;6.578;2022-12-18T05:56:12;7.78;;;3.15;;
31676;SDS011;18385;51.572;6.578;2022-12-18T05:58:42;8.75;;;3.00;;
31676;SDS011;18385;51.572;6.578;2022-12-18T06:01:11;7.53;;;3.35;;
31676;SDS011;18385;51.572;6.578;2022-12-18T06:03:36;7.90;;;3.38;;
31676;SDS011;18385;51.572;6.578;2022-12-18T06:06:02;8.30;;;3.50;;
31676;SDS011;18385;51.572;6.578;2022-12-18T06:08:28;12.93;;;3.40;;
31676;SDS011;18385;51.572;6.578;2022-12-18T06:10:54;10.15;;;3.97;;
31676;SDS011;18385;51.572;6.578;2022-12-18T06:13:20;8.93;;;3.70;;
31676;SDS011;18385;51.572;6.578;2022-12-18T06:15:46;9.68;;;3.55;;
31676;SDS011;18385;51.572;6.578;2022-12-18T06:18:12;11.13;;;3.80;;
31676;SDS011;18385;51.572;6.578;2022-12-18T06:20:37;10.50;;;4.32;;
31676;SDS011;18385;51.572;6.578;2022-12-18T06:23:05;13.95;;;4.03;;
31676;SDS011;18385;51.572;6.578;2022-12-18T06:25:31;10.77;;;4.43;;
31676;SDS011;18385;51.572;6.578;2022-12-18T06:27:58;15.27;;;4.55;;
31676;SDS011;18385;51.572;6.578;2022-12-18T06:30:23;13.45;;;4.70;;
31676;SDS011;18385;51.572;6.578;2022-12-18T06:32:49;11.55;;;4.25;;
31676;SDS011;18385;51.572;6.578;2022-12-18T06:35:15;10.23;;;4.00;;
31676;SDS011;18385;51.572;6.578;2022-12-18T06:37:41;9.25;;;4.00;;
31676;SDS011;18385;51.572;6.578;2022-12-18T06:40:07;11.27;;;3.95;;
31676;SDS011;18385;51.572;6.578;2022-12-18T06:42:33;11.90;;;4.40;;
31676;SDS011;18385;51.572;6.578;2022-12-18T06:44:58;8.15;;;3.58;;
31676;SDS011;18385;51.572;6.578;2022-12-18T06:47:24;15.43;;;4.82;;
31676;SDS011;18385;51.572;6.578;2022-12-18T06:49:50;12.07;;;3.72;;
31676;SDS011;18385;51.572;6.578;2022-12-18T06:52:15;9.55;;;3.60;;
31676;SDS011;18385;51.572;6.578;2022-12-18T06:54:41;10.07;;;4.07;;
31676;SDS011;18385;51.572;6.578;2022-12-18T06:57:07;10.68;;;3.70;;
31676;SDS011;18385;51.572;6.578;2022-12-18T06:59:33;11.80;;;3.80;;
31676;SDS011;18385;51.572;6.578;2022-12-18T07:01:58;11.95;;;4.10;;
31676;SDS011;18385;51.572;6.578;2022-12-18T07:04:30;9.85;;;3.85;;
31676;SDS011;18385;51.572;6.578;2022-12-18T07:06:56;12.98;;;4.55;;
31676;SDS011;18385;51.572;6.578;2022-12-18T07:09:22;17.25;;;4.53;;
31676;SDS011;18385;51.572;6.578;2022-12-18T07:11:48;8.43;;;4.57;;
31676;SDS011;18385;51.572;6.578;2022-12-18T07:14:14;9.90;;;4.60;;
31676;SDS011;18385;51.572;6.578;2022-12-18T07:16:40;8.43;;;3.88;;
31676;SDS011;18385;51.572;6.578;2022-12-18T07:19:05;8.55;;;3.80;;
31676;SDS011;18385;51.572;6.578;2022-12-18T07:21:31;12.02;;;3.35;;
31676;SDS011;18385;51.572;6.578;2022-12-18T07:23:57;7.85;;;3.10;;
31676;SDS011;18385;51.572;6.578;2022-12-18T07:26:23;9.30;;;3.70;;
31676;SDS011;18385;51.572;6.578;2022-12-18T07:28:49;8.23;;;3.60;;
31676;SDS011;18385;51.572;6.578;2022-12-18T07:31:16;10.02;;;3.38;;
31676;SDS011;18385;51.572;6.578;2022-12-18T07:33:44;8.52;;;3.35;;
31676;SDS011;18385;51.572;6.578;2022-12-18T07:36:14;11.13;;;3.97;;
31676;SDS011;18385;51.572;6.578;2022-12-18T07:38:46;8.38;;;3.05;;
31676;SDS011;18385;51.572;6.578;2022-12-18T07:41:12;6.65;;;2.90;;
31676;SDS011;18385;51.572;6.578;2022-12-18T07:43:39;10.20;;;3.45;;
31676;SDS011;18385;51.572;6.578;2022-12-18T07:46:06;8.95;;;3.03;;
31676;SDS011;18385;51.572;6.578;2022-12-18T07:48:32;9.10;;;3.20;;
31676;SDS011;18385;51.572;6.578;2022-12-18T07:51:05;12.43;;;3.45;;
31676;SDS011;18385;51.572;6.578;2022-12-18T07:53:31;10.80;;;3.55;;
31676;SDS011;18385;51.572;6.578;2022-12-18T07:55:58;6.97;;;3.03;;
31676;SDS011;18385;51.572;6.578;2022-12-18T07:58:26;7.97;;;3.13;;
31676;SDS011;18385;51.572;6.578;2022-12-18T08:00:52;8.57;;;3.03;;
31676;SDS011;18385;51.572;6.578;2022-12-18T08:03:18;8.77;;;3.08;;
31676;SDS011;18385;51.572;6.578;2022-12-18T08:05:44;10.07;;;3.70;;
31676;SDS011;18385;51.572;6.578;2022-12-18T08:08:10;8.23;;;3.47;;
31676;SDS011;18385;51.572;6.578;2022-12-18T08:10:36;8.85;;;3.63;;
31676;SDS011;18385;51.572;6.578;2022-12-18T08:13:02;9.38;;;3.35;;
31676;SDS011;18385;51.572;6.578;2022-12-18T08:15:28;8.27;;;2.72;;
31676;SDS011;18385;51.572;6.578;2022-12-18T08:17:56;7.82;;;3.22;;
31676;SDS011;18385;51.572;6.578;2022-12-18T08:20:22;8.27;;;2.95;;
31676;SDS011;18385;51.572;6.578;2022-12-18T08:22:47;10.52;;;3.00;;
31676;SDS011;18385;51.572;6.578;2022-12-18T08:25:13;8.38;;;3.38;;
31676;SDS011;18385;51.572;6.578;2022-12-18T08:27:39;7.28;;;2.88;;
31676;SDS011;18385;51.572;6.578;2022-12-18T08:30:05;8.30;;;3.55;;
31676;SDS011;18385;51.572;6.578;2022-12-18T08:32:31;6.32;;;3.35;;
31676;SDS011;18385;51.572;6.578;2022-12-18T08:34:58;7.32;;;3.30;;
31676;SDS011;18385;51.572;6.578;2022-12-18T08:37:23;9.45;;;3.38;;
31676;SDS011;18385;51.572;6.578;2022-12-18T08:39:49;10.05;;;3.35;;
31676;SDS011;18385;51.572;6.578;2022-12-18T08:42:15;6.53;;;3.00;;
31676;SDS011;18385;51.572;6.578;2022-12-18T08:44:59;10.55;;;3.60;;
31676;SDS011;18385;51.572;6.578;2022-12-18T08:47:25;8.00;;;2.92;;
31676;SDS011;18385;51.572;6.578;2022-12-18T08:49:51;9.20;;;3.65;;
31676;SDS011;18385;51.572;6.578;2022-12-18T08:52:16;9.18;;;3.63;;
31676;SDS011;18385;51.572;6.578;2022-12-18T08:54:42;9.48;;;3.78;;
31676;SDS011;18385;51.572;6.578;2022-12-18T08:57:08;7.07;;;3.30;;
31676;SDS011;18385;51.572;6.578;2022-12-18T08:59:34;9.15;;;3.75;;
31676;SDS011;18385;51.572;6.578;2022-12-18T09:01:59;9.10;;;3.58;;
31676;SDS011;18385;51.572;6.578;2022-12-18T09:04:25;10.15;;;4.03;;
31676;SDS011;18385;51.572;6.578;2022-12-18T09:06:51;8.32;;;3.50;;
31676;SDS011;18385;51.572;6.578;2022-12-18T09:09:19;10.60;;;5.53;;
31676;SDS011;18385;51.572;6.578;2022-12-18T09:11:45;9.43;;;3.55;;
31676;SDS011;18385;51.572;6.578;2022-12-18T09:14:11;8.60;;;4.05;;
31676;SDS011;18385;51.572;6.578;2022-12-18T09:16:36;7.75;;;3.35;;
31676;SDS011;18385;51.572;6.578;2022-12-18T09:19:03;10.80;;;4.70;;
31676;SDS011;18385;51.572;6.578;2022-12-18T09:21:30;10.95;;;4.05;;
31676;SDS011;18385;51.572;6.578;2022-12-18T09:23:57;7.75;;;3.72;;
31676;SDS011;18385;51.572;6.578;2022-12-18T09:26:24;12.25;;;5.32;;
31676;SDS011;18385;51.572;6.578;2022-12-18T09:28:51;11.45;;;4.43;;
31676;SDS011;18385;51.572;6.578;2022-12-18T09:31:18;14.98;;;5.38;;
31676;SDS011;18385;51.572;6.578;2022-12-18T09:33:45;11.35;;;4.60;;
31676;SDS011;18385;51.572;6.578;2022-12-18T09:36:12;13.25;;;4.43;;
31676;SDS011;18385;51.572;6.578;2022-12-18T09:38:39;12.80;;;4.40;;
31676;SDS011;18385;51.572;6.578;2022-12-18T09:43:51;12.70;;;4.72;;
31676;SDS011;18385;51.572;6.578;2022-12-18T09:46:26;11.05;;;4.43;;
31676;SDS011;18385;51.572;6.578;2022-12-18T09:49:04;9.75;;;3.90;;
31676;SDS011;18385;51.572;6.578;2022-12-18T09:54:10;10.65;;;4.10;;
31676;SDS011;18385;51.572;6.578;2022-12-18T09:56:40;10.10;;;4.28;;
31676;SDS011;18385;51.572;6.578;2022-12-18T09:59:14;11.90;;;4.10;;
31676;SDS011;18385;51.572;6.578;2022-12-18T10:01:48;9.63;;;3.92;;
31676;SDS011;18385;51.572;6.578;2022-12-18T10:04:17;11.20;;;4.68;;
31676;SDS011;18385;51.572;6.578;2022-12-18T10:09:27;10.82;;;3.50;;
31676;SDS011;18385;51.572;6.578;2022-12-18T10:12:08;7.53;;;3.15;;
31676;SDS011;18385;51.572;6.578;2022-12-18T10:14:57;8.65;;;3.35;;
31676;SDS011;18385;51.572;6.578;2022-12-18T10:23:04;8.75;;;3.25;;
31676;SDS011;18385;51.572;6.578;2022-12-18T10:28:26;8.68;;;3.28;;
31676;SDS011;18385;51.572;6.578;2022-12-18T10:30:55;9.65;;;3.60;;
31676;SDS011;18385;51.572;6.578;2022-12-18T10:33:22;8.35;;;3.55;;
31676;SDS011;18385;51.572;6.578;2022-12-18T10:35:52;10.38;;;3.85;;
31676;SDS011;18385;51.572;6.578;2022-12-18T10:46:44;10.13;;;3.80;;
31676;SDS011;18385;51.572;6.578;2022-12-18T10:49:20;10.05;;;4.05;;
31676;SDS011;18385;51.572;6.578;2022-12-18T10:51:49;9.40;;;3.92;;
31676;SDS011;18385;51.572;6.578;2022-12-18T10:54:17;8.23;;;3.17;;
31676;SDS011;18385;51.572;6.578;2022-12-18T10:56:46;10.07;;;3.97;;
31676;SDS011;18385;51.572;6.578;2022-12-18T10:59:16;9.25;;;3.83;;
31676;SDS011;18385;51.572;6.578;2022-12-18T11:04:23;8.13;;;3.45;;
31676;SDS011;18385;51.572;6.578;2022-12-18T11:11:55;11.60;;;4.60;;
31676;SDS011;18385;51.572;6.578;2022-12-18T11:14:29;11.15;;;4.45;;
31676;SDS011;18385;51.572;6.578;2022-12-18T11:17:17;10.98;;;4.50;;
31676;SDS011;18385;51.572;6.578;2022-12-18T11:19:55;7.95;;;3.85;;
31676;SDS011;18385;51.572;6.578;2022-12-18T11:23:10;9.48;;;4.32;;
31676;SDS011;18385;51.572;6.578;2022-12-18T11:25:38;9.05;;;3.17;;
31676;SDS011;18385;51.572;6.578;2022-12-18T11:34:49;10.75;;;4.80;;
31676;SDS011;18385;51.572;6.578;2022-12-18T11:52:31;12.20;;;6.18;;
31676;SDS011;18385;51.572;6.578;2022-12-18T11:59:16;8.90;;;4.07;;
31676;SDS011;18385;51.572;6.578;2022-12-18T12:03:00;13.45;;;5.38;;
31676;SDS011;18385;51.572;6.578;2022-12-18T12:21:51;10.02;;;4.40;;
31676;SDS011;18385;51.572;6.578;2022-12-18T12:27:17;13.73;;;5.22;;
31676;SDS011;18385;51.572;6.578;2022-12-18T12:40:05;11.95;;;4.57;;
31676;SDS011;18385;51.572;6.578;2022-12-18T12:42:33;10.63;;;4.20;;
31676;SDS011;18385;51.572;6.578;2022-12-18T12:45:33;9.23;;;3.83;;
31676;SDS011;18385;51.572;6.578;2022-12-18T12:51:02;9.40;;;4.60;;
31676;SDS011;18385;51.572;6.578;2022-12-18T12:53:38;8.80;;;4.20;;
31676;SDS011;18385;51.572;6.578;2022-12-18T12:56:06;9.18;;;4.15;;
31676;SDS011;18385;51.572;6.578;2022-12-18T13:03:59;9.75;;;4.25;;
31676;SDS011;18385;51.572;6.578;2022-12-18T13:06:41;13.32;;;4.97;;
31676;SDS011;18385;51.572;6.578;2022-12-18T13:09:15;10.65;;;4.53;;
31676;SDS011;18385;51.572;6.578;2022-12-18T13:18:57;9.25;;;4.28;;
31676;SDS011;18385;51.572;6.578;2022-12-18T13:36:25;16.50;;;7.13;;
31676;SDS011;18385;51.572;6.578;2022-12-18T13:38:40;17.23;;;7.45;;
31676;SDS011;18385;51.572;6.578;2022-12-18T13:44:10;14.57;;;4.80;;
31676;SDS011;18385;51.572;6.578;2022-12-18T13:46:44;14.18;;;5.25;;
31676;SDS011;18385;51.572;6.578;2022-12-18T13:51:39;15.23;;;5.63;;
31676;SDS011;18385;51.572;6.578;2022-12-18T13:56:57;14.30;;;5.47;;
31676;SDS011;18385;51.572;6.578;2022-12-18T13:59:24;14.10;;;5.88;;
31676;SDS011;18385;51.572;6.578;2022-12-18T14:02:05;20.75;;;6.63;;
31676;SDS011;18385;51.572;6.578;2022-12-18T14:04:38;16.15;;;5.97;;
31676;SDS011;18385;51.572;6.578;2022-12-18T14:07:05;16.70;;;6.20;;
31676;SDS011;18385;51.572;6.578;2022-12-18T14:09:57;19.65;;;6.68;;
31676;SDS011;18385;51.572;6.578;2022-12-18T14:12:24;13.85;;;5.80;;
31676;SDS011;18385;51.572;6.578;2022-12-18T14:15:33;13.77;;;6.38;;
31676;SDS011;18385;51.572;6.578;2022-12-18T14:20:47;16.30;;;7.57;;
31676;SDS011;18385;51.572;6.578;2022-12-18T14:23:31;15.68;;;6.28;;
31676;SDS011;18385;51.572;6.578;2022-12-18T14:25:59;15.55;;;7.28;;
31676;SDS011;18385;51.572;6.578;2022-12-18T14:28:26;14.75;;;6.57;;
31676;SDS011;18385;51.572;6.578;2022-12-18T14:30:52;14.95;;;6.25;;
31676;SDS011;18385;51.572;6.578;2022-12-18T14:33:26;12.88;;;5.75;;
31676;SDS011;18385;51.572;6.578;2022-12-18T14:35:59;14.95;;;6.75;;
31676;SDS011;18385;51.572;6.578;2022-12-18T14:38:35;17.05;;;6.53;;
31676;SDS011;18385;51.572;6.578;2022-12-18T14:43:42;16.80;;;6.63;;
31676;SDS011;18385;51.572;6.578;2022-12-18T14:46:29;15.63;;;6.45;;
31676;SDS011;18385;51.572;6.578;2022-12-18T14:51:46;15.40;;;6.53;;
31676;SDS011;18385;51.572;6.578;2022-12-18T14:54:19;12.55;;;5.72;;
31676;SDS011;18385;51.572;6.578;2022-12-18T14:56:48;20.23;;;7.75;;
31676;SDS011;18385;51.572;6.578;2022-12-18T14:59:35;18.88;;;7.93;;
31676;SDS011;18385;51.572;6.578;2022-12-18T15:02:02;17.92;;;7.22;;
31676;SDS011;18385;51.572;6.578;2022-12-18T15:04:36;18.08;;;7.68;;
31676;SDS011;18385;51.572;6.578;2022-12-18T15:09:30;20.80;;;7.93;;
31676;SDS011;18385;51.572;6.578;2022-12-18T15:11:59;22.00;;;8.52;;
31676;SDS011;18385;51.572;6.578;2022-12-18T15:14:35;20.40;;;8.88;;
31676;SDS011;18385;51.572;6.578;2022-12-18T15:17:13;21.52;;;8.43;;
31676;SDS011;18385;51.572;6.578;2022-12-18T15:19:53;24.95;;;9.65;;
31676;SDS011;18385;51.572;6.578;2022-12-18T15:24:53;18.63;;;7.65;;
31676;SDS011;18385;51.572;6.578;2022-12-18T15:27:28;18.02;;;7.28;;
31676;SDS011;18385;51.572;6.578;2022-12-18T15:32:28;18.02;;;8.32;;
31676;SDS011;18385;51.572;6.578;2022-12-18T15:43:55;28.10;;;10.50;;
31676;SDS011;18385;51.572;6.578;2022-12-18T15:46:32;21.83;;;9.73;;
31676;SDS011;18385;51.572;6.578;2022-12-18T15:49:14;26.42;;;11.30;;
31676;SDS011;18385;51.572;6.578;2022-12-18T15:51:50;28.58;;;11.82;;
31676;SDS011;18385;51.572;6.578;2022-12-18T15:54:53;26.95;;;11.40;;
31676;SDS011;18385;51.572;6.578;2022-12-18T15:58:21;26.88;;;10.35;;
31676;SDS011;18385;51.572;6.578;2022-12-18T16:00:53;18.08;;;7.53;;
31676;SDS011;18385;51.572;6.578;2022-12-18T16:03:26;26.25;;;8.85;;
31676;SDS011;18385;51.572;6.578;2022-12-18T16:05:52;18.52;;;7.88;;
31676;SDS011;18385;51.572;6.578;2022-12-18T16:08:19;19.35;;;8.25;;
31676;SDS011;18385;51.572;6.578;2022-12-18T16:10:45;22.17;;;8.90;;
31676;SDS011;18385;51.572;6.578;2022-12-18T16:13:11;22.63;;;8.43;;
31676;SDS011;18385;51.572;6.578;2022-12-18T16:15:40;22.83;;;8.63;;
31676;SDS011;18385;51.572;6.578;2022-12-18T16:18:06;20.48;;;8.77;;
31676;SDS011;18385;51.572;6.578;2022-12-18T16:20:32;22.70;;;8.63;;
31676;SDS011;18385;51.572;6.578;2022-12-18T16:22:58;20.77;;;8.73;;
31676;SDS011;18385;51.572;6.578;2022-12-18T16:25:25;21.38;;;9.68;;
31676;SDS011;18385;51.572;6.578;2022-12-18T16:27:53;22.90;;;9.50;;
31676;SDS011;18385;51.572;6.578;2022-12-18T16:32:56;17.55;;;8.00;;
31676;SDS011;18385;51.572;6.578;2022-12-18T16:35:23;21.33;;;8.40;;
31676;SDS011;18385;51.572;6.578;2022-12-18T16:37:50;17.58;;;8.10;;
31676;SDS011;18385;51.572;6.578;2022-12-18T16:40:16;15.82;;;7.47;;
31676;SDS011;18385;51.572;6.578;2022-12-18T16:42:43;15.60;;;7.00;;
31676;SDS011;18385;51.572;6.578;2022-12-18T16:45:16;21.13;;;7.97;;
31676;SDS011;18385;51.572;6.578;2022-12-18T16:47:43;19.13;;;8.50;;
31676;SDS011;18385;51.572;6.578;2022-12-18T16:50:10;18.88;;;8.38;;
31676;SDS011;18385;51.572;6.578;2022-12-18T16:52:42;23.30;;;9.93;;
31676;SDS011;18385;51.572;6.578;2022-12-18T16:55:09;20.60;;;7.80;;
31676;SDS011;18385;51.572;6.578;2022-12-18T16:57:35;18.48;;;8.60;;
31676;SDS011;18385;51.572;6.578;2022-12-18T17:00:01;19.20;;;7.90;;
31676;SDS011;18385;51.572;6.578;2022-12-18T17:02:28;18.33;;;9.05;;
31676;SDS011;18385;51.572;6.578;2022-12-18T17:04:54;23.50;;;8.48;;
31676;SDS011;18385;51.572;6.578;2022-12-18T17:07:22;20.25;;;8.45;;
31676;SDS011;18385;51.572;6.578;2022-12-18T17:09:49;27.42;;;8.60;;
31676;SDS011;18385;51.572;6.578;2022-12-18T17:12:15;23.45;;;8.95;;
31676;SDS011;18385;51.572;6.578;2022-12-18T17:14:41;25.73;;;9.48;;
31676;SDS011;18385;51.572;6.578;2022-12-18T17:17:07;23.85;;;9.15;;
31676;SDS011;18385;51.572;6.578;2022-12-18T17:19:32;22.83;;;9.82;;
31676;SDS011;18385;51.572;6.578;2022-12-18T17:21:58;20.95;;;7.55;;
31676;SDS011;18385;51.572;6.578;2022-12-18T17:24:24;23.20;;;9.38;;
31676;SDS011;18385;51.572;6.578;2022-12-18T17:26:50;26.95;;;9.55;;
31676;SDS011;18385;51.572;6.578;2022-12-18T17:29:19;23.70;;;9.55;;
31676;SDS011;18385;51.572;6.578;2022-12-18T17:31:46;20.17;;;9.10;;
31676;SDS011;18385;51.572;6.578;2022-12-18T17:34:15;29.23;;;8.75;;
31676;SDS011;18385;51.572;6.578;2022-12-18T17:36:41;23.80;;;8.50;;
31676;SDS011;18385;51.572;6.578;2022-12-18T17:39:07;23.80;;;9.30;;
31676;SDS011;18385;51.572;6.578;2022-12-18T17:41:40;25.98;;;9.73;;
31676;SDS011;18385;51.572;6.578;2022-12-18T17:44:05;22.60;;;9.35;;
31676;SDS011;18385;51.572;6.578;2022-12-18T17:46:32;27.45;;;10.10;;
31676;SDS011;18385;51.572;6.578;2022-12-18T17:48:58;20.05;;;6.75;;
31676;SDS011;18385;51.572;6.578;2022-12-18T17:51:26;26.40;;;9.32;;
31676;SDS011;18385;51.572;6.578;2022-12-18T17:53:52;22.73;;;9.85;;
31676;SDS011;18385;51.572;6.578;2022-12-18T17:56:19;28.65;;;9.80;;
31676;SDS011;18385;51.572;6.578;2022-12-18T17:58:45;24.15;;;10.48;;
31676;SDS011;18385;51.572;6.578;2022-12-18T18:01:16;21.48;;;8.88;;
31676;SDS011;18385;51.572;6.578;2022-12-18T18:03:47;30.88;;;11.35;;
31676;SDS011;18385;51.572;6.578;2022-12-18T18:06:13;27.30;;;11.35;;
31676;SDS011;18385;51.572;6.578;2022-12-18T18:08:39;24.15;;;9.48;;